Time;durP1;ratioP1;P1;durP2;ratioP2;P2;SDS_P1;SDS_P2;PMS_P1;PMS_P2;Temp;Humidity;BMP_temperature;BMP_pressure;BME280_temperature;BME280_humidity;BME280_pressure;Samples;Min_cycle;Max_cycle;Signal;HPM_P1;HPM_P2
2021/05/03 00:00:09;;;;;;;0.28;0.28;;;11.20;56.30;;;;;;5033335;28;20451;-70
2021/05/03 00:02:36;;;;;;;0.20;0.20;;;11.20;56.40;;;;;;5033888;28;20053;-70
2021/05/03 00:05:05;;;;;;;0.30;0.30;;;11.10;56.60;;;;;;5032975;28;20057;-70
2021/05/03 00:07:31;;;;;;;0.20;0.20;;;11.10;56.80;;;;;;5033648;28;20179;-70
2021/05/03 00:09:58;;;;;;;0.20;0.20;;;11.20;56.90;;;;;;5032959;28;20401;-70
2021/05/03 00:12:24;;;;;;;0.40;0.40;;;11.10;56.90;;;;;;5033229;28;20103;-70
2021/05/03 00:14:51;;;;;;;0.28;0.28;;;11.20;57.10;;;;;;5033256;28;20053;-70
2021/05/03 00:17:18;;;;;;;0.30;0.30;;;11.10;57.10;;;;;;5033154;28;20489;-70
2021/05/03 00:19:44;;;;;;;0.20;0.20;;;11.20;57.40;;;;;;5033181;28;20057;-70
2021/05/03 00:22:10;;;;;;;0.20;0.20;;;11.10;57.30;;;;;;5032996;28;20128;-70
2021/05/03 00:24:37;;;;;;;0.30;0.30;;;11.10;57.50;;;;;;5033143;28;20051;-70
2021/05/03 00:27:03;;;;;;;0.30;0.30;;;11.10;57.50;;;;;;5031834;28;20041;-70
2021/05/03 00:29:30;;;;;;;0.30;0.30;;;11.10;57.60;;;;;;5033018;28;20124;-70
2021/05/03 00:31:56;;;;;;;0.25;0.25;;;11.10;57.80;;;;;;5032974;28;20041;-70
2021/05/03 00:34:22;;;;;;;0.30;0.30;;;11.00;57.80;;;;;;5033073;28;20052;-69
2021/05/03 00:36:49;;;;;;;0.20;0.20;;;11.00;57.90;;;;;;5033112;28;20124;-69
2021/05/03 00:39:15;;;;;;;0.20;0.20;;;11.00;57.90;;;;;;5032315;28;20046;-70
2021/05/03 00:41:41;;;;;;;0.40;0.40;;;11.00;58.00;;;;;;5033038;28;20085;-70
2021/05/03 00:44:07;;;;;;;0.20;0.20;;;11.00;57.90;;;;;;5032448;28;20053;-70
2021/05/03 00:46:34;;;;;;;0.40;0.40;;;11.00;58.00;;;;;;5032749;28;20118;-70
2021/05/03 00:49:00;;;;;;;0.30;0.30;;;11.00;58.20;;;;;;5032394;28;20520;-70
2021/05/03 00:51:27;;;;;;;0.35;0.35;;;11.00;58.20;;;;;;5032921;28;20120;-70
2021/05/03 00:53:53;;;;;;;0.43;0.43;;;11.00;58.30;;;;;;5025635;28;20054;-70
2021/05/03 00:56:19;;;;;;;0.40;0.40;;;11.00;58.60;;;;;;5030268;28;20128;-70
2021/05/03 00:58:46;;;;;;;0.40;0.40;;;11.00;59.50;;;;;;5023215;28;20455;-70
2021/05/03 01:01:12;;;;;;;0.40;0.40;;;11.00;58.50;;;;;;5030691;28;20045;-70
2021/05/03 01:03:39;;;;;;;0.30;0.30;;;11.00;58.40;;;;;;5021453;28;20089;-70
2021/05/03 01:06:06;;;;;;;0.30;0.30;;;11.00;58.40;;;;;;5032394;28;20088;-70
2021/05/03 01:08:32;;;;;;;0.40;0.40;;;11.00;59.40;;;;;;5029350;28;20498;-70
2021/05/03 01:11:00;;;;;;;0.30;0.30;;;11.00;58.50;;;;;;5026005;28;20050;-70
2021/05/03 01:13:27;;;;;;;0.77;0.60;;;11.00;58.50;;;;;;5031941;28;20128;-70
2021/05/03 01:15:53;;;;;;;0.40;0.40;;;11.00;58.60;;;;;;5027657;28;20061;-70
2021/05/03 01:18:24;;;;;;;0.30;0.30;;;11.00;58.70;;;;;;5031861;28;20049;-70
2021/05/03 01:20:55;;;;;;;0.50;0.50;;;11.00;58.80;;;;;;5032349;28;20076;-70
2021/05/03 01:23:21;;;;;;;0.40;0.40;;;10.90;58.80;;;;;;5032150;28;20497;-70
2021/05/03 01:25:47;;;;;;;0.52;0.52;;;10.90;58.90;;;;;;5031981;28;20063;-70
2021/05/03 01:28:14;;;;;;;0.40;0.40;;;10.90;59.00;;;;;;5036949;28;20106;-70
2021/05/03 01:30:42;;;;;;;0.50;0.50;;;10.90;59.10;;;;;;5034306;28;20048;-70
2021/05/03 01:33:10;;;;;;;0.40;0.40;;;10.90;59.20;;;;;;5034826;28;20552;-71
2021/05/03 01:35:38;;;;;;;0.50;0.50;;;10.90;59.40;;;;;;5031969;28;20132;-71
2021/05/03 01:38:06;;;;;;;0.55;0.55;;;10.90;59.30;;;;;;5031722;28;20180;-71
2021/05/03 01:40:36;;;;;;;0.40;0.40;;;10.80;59.40;;;;;;5026813;28;20183;-71
2021/05/03 01:43:22;;;;;;;0.40;0.40;;;10.80;59.50;;;;;;5031589;28;20045;-71
2021/05/03 01:45:51;;;;;;;0.40;0.40;;;10.80;59.70;;;;;;5031914;28;20156;-72
2021/05/03 01:48:21;;;;;;;0.40;0.40;;;10.80;59.90;;;;;;5031425;28;20049;-71
2021/05/03 01:50:48;;;;;;;0.40;0.40;;;10.80;59.90;;;;;;5031737;28;20045;-71
2021/05/03 01:53:16;;;;;;;0.50;0.50;;;10.80;60.00;;;;;;5030936;28;20081;-71
2021/05/03 01:55:44;;;;;;;0.50;0.50;;;10.80;60.10;;;;;;5031184;28;20605;-71
2021/05/03 01:58:12;;;;;;;0.50;0.50;;;10.80;60.10;;;;;;5027087;28;20177;-72
2021/05/03 02:00:39;;;;;;;0.47;0.35;;;10.80;60.20;;;;;;5039369;28;20529;-71
2021/05/03 02:03:05;;;;;;;0.30;0.30;;;10.80;60.10;;;;;;5031307;28;20060;-71
2021/05/03 02:05:32;;;;;;;0.40;0.40;;;10.80;60.20;;;;;;5031788;28;20099;-72
2021/05/03 02:08:03;;;;;;;0.30;0.30;;;10.70;60.40;;;;;;5031516;28;20056;-71
2021/05/03 02:10:32;;;;;;;0.40;0.40;;;10.80;60.50;;;;;;5031449;28;20163;-71
2021/05/03 02:13:00;;;;;;;0.40;0.40;;;10.70;60.50;;;;;;5018452;28;20049;-71
2021/05/03 02:15:27;;;;;;;0.38;0.38;;;10.80;60.50;;;;;;5012059;28;20513;-71
2021/05/03 02:17:54;;;;;;;0.22;0.22;;;10.80;60.60;;;;;;5011526;28;20136;-72
2021/05/03 02:20:21;;;;;;;0.50;0.50;;;10.80;60.60;;;;;;5026795;28;20511;-71
2021/05/03 02:22:48;;;;;;;0.28;0.28;;;10.80;60.70;;;;;;5027911;28;20647;-71
2021/05/03 02:25:14;;;;;;;0.30;0.30;;;10.80;60.80;;;;;;5022429;28;20096;-71
2021/05/03 02:27:41;;;;;;;0.28;0.28;;;10.80;60.70;;;;;;5018873;28;20053;-71
2021/05/03 02:30:09;;;;;;;0.40;0.40;;;10.90;60.80;;;;;;5017862;28;20430;-71
2021/05/03 02:32:36;;;;;;;0.38;0.38;;;10.80;60.80;;;;;;5028158;28;20060;-72
2021/05/03 02:35:08;;;;;;;0.30;0.30;;;10.80;60.90;;;;;;5031128;28;20414;-70
2021/05/03 02:37:34;;;;;;;0.40;0.40;;;10.80;61.00;;;;;;5025956;28;20129;-71
2021/05/03 02:40:02;;;;;;;0.30;0.30;;;10.80;61.00;;;;;;5022206;28;20080;-71
2021/05/03 02:42:29;;;;;;;0.30;0.30;;;10.80;61.10;;;;;;5031076;28;20045;-71
2021/05/03 02:44:55;;;;;;;0.20;0.20;;;10.80;61.10;;;;;;5031529;28;20513;-71
2021/05/03 02:47:22;;;;;;;0.25;0.25;;;10.80;61.20;;;;;;5031089;28;20517;-72
2021/05/03 02:49:48;;;;;;;0.25;0.25;;;10.70;61.20;;;;;;5031918;28;20050;-70
2021/05/03 02:52:14;;;;;;;0.20;0.20;;;10.70;61.40;;;;;;5034603;28;20046;-72
2021/05/03 02:54:41;;;;;;;0.30;0.30;;;10.60;61.50;;;;;;5021582;28;20046;-72
2021/05/03 02:57:07;;;;;;;0.20;0.20;;;10.60;61.70;;;;;;5025929;28;20057;-74
2021/05/03 02:59:33;;;;;;;0.20;0.20;;;10.60;61.80;;;;;;5034375;28;20409;-71
2021/05/03 03:02:00;;;;;;;0.40;0.40;;;10.50;61.90;;;;;;5034959;28;20132;-72
2021/05/03 03:04:26;;;;;;;0.30;0.30;;;10.50;62.00;;;;;;5034417;28;20144;-71
2021/05/03 03:06:53;;;;;;;0.30;0.30;;;10.50;62.70;;;;;;5034551;28;20045;-71
2021/05/03 03:09:20;;;;;;;0.20;0.20;;;10.50;62.80;;;;;;5034872;28;20053;-71
2021/05/03 03:11:47;;;;;;;0.32;0.32;;;10.40;62.40;;;;;;5034687;28;20045;-71
2021/05/03 03:14:15;;;;;;;0.20;0.20;;;10.40;62.10;;;;;;5034458;28;20045;-71
2021/05/03 03:16:42;;;;;;;0.20;0.20;;;10.40;61.90;;;;;;5033004;28;20405;-71
2021/05/03 03:19:08;;;;;;;0.32;0.25;;;10.30;61.90;;;;;;5034766;28;20053;-71
2021/05/03 03:21:35;;;;;;;0.20;0.20;;;10.30;61.90;;;;;;5034199;28;20057;-71
2021/05/03 03:24:01;;;;;;;0.30;0.30;;;10.20;61.90;;;;;;5034369;28;20045;-71
2021/05/03 03:26:28;;;;;;;0.10;0.10;;;10.20;61.90;;;;;;5034204;28;20509;-71
2021/05/03 03:28:54;;;;;;;0.20;0.20;;;10.20;61.90;;;;;;5034278;28;20489;-71
2021/05/03 03:31:20;;;;;;;0.20;0.20;;;10.20;61.80;;;;;;5034293;28;20041;-71
2021/05/03 03:33:46;;;;;;;0.22;0.22;;;10.30;61.80;;;;;;5033858;28;20171;-71
2021/05/03 03:36:13;;;;;;;0.10;0.10;;;10.30;61.80;;;;;;5034131;28;20106;-71
2021/05/03 03:38:40;;;;;;;0.20;0.20;;;10.30;61.80;;;;;;5033742;28;20135;-71
2021/05/03 03:41:06;;;;;;;0.20;0.20;;;10.20;61.70;;;;;;5033953;28;20096;-71
2021/05/03 03:43:33;;;;;;;0.20;0.20;;;10.30;61.70;;;;;;5033613;28;20115;-71
2021/05/03 03:45:59;;;;;;;0.10;0.10;;;10.20;61.70;;;;;;5033960;28;20049;-71
2021/05/03 03:48:26;;;;;;;0.20;0.20;;;10.30;62.00;;;;;;5033529;28;20049;-72
2021/05/03 03:50:52;;;;;;;0.10;0.10;;;10.20;62.10;;;;;;5033572;28;20124;-72
2021/05/03 03:53:18;;;;;;;0.20;0.20;;;10.20;62.20;;;;;;5033777;28;20045;-72
2021/05/03 03:55:45;;;;;;;0.10;0.10;;;10.20;62.20;;;;;;5033675;28;20058;-71
2021/05/03 03:58:11;;;;;;;0.20;0.20;;;10.20;62.20;;;;;;5033854;28;20132;-71
2021/05/03 04:00:37;;;;;;;0.20;0.20;;;10.20;62.10;;;;;;5020112;28;20050;-71
2021/05/03 04:03:06;;;;;;;0.20;0.20;;;10.20;62.00;;;;;;5032170;28;20108;-71
2021/05/03 04:11:18;;;;;;;0.20;0.20;;;10.10;62.30;;;;;;5050535;28;20071;-71
2021/05/03 04:27:02;;;;;;;0.20;0.20;;;10.10;62.20;;;;;;5030638;28;20088;-71
2021/05/03 04:29:28;;;;;;;0.20;0.20;;;10.00;62.10;;;;;;5030639;28;20057;-71
2021/05/03 04:31:54;;;;;;;0.20;0.20;;;10.00;62.20;;;;;;5030484;28;20132;-71
2021/05/03 04:34:21;;;;;;;0.30;0.30;;;10.00;62.30;;;;;;5030284;28;20053;-71
2021/05/03 04:36:47;;;;;;;0.40;0.40;;;9.90;62.30;;;;;;5029997;28;20481;-71
2021/05/03 04:39:13;;;;;;;0.30;0.30;;;9.90;62.30;;;;;;5030353;28;20536;-71
2021/05/03 04:41:40;;;;;;;0.35;0.35;;;9.90;62.40;;;;;;5029942;28;20053;-71
2021/05/03 04:44:06;;;;;;;0.30;0.30;;;9.90;62.40;;;;;;5029855;28;20157;-71
2021/05/03 04:46:32;;;;;;;0.32;0.25;;;9.90;62.40;;;;;;5030175;28;20041;-71
2021/05/03 04:48:59;;;;;;;0.25;0.25;;;9.90;62.30;;;;;;5020466;28;20406;-71
2021/05/03 04:51:25;;;;;;;0.30;0.30;;;9.90;62.20;;;;;;5030040;28;20072;-72
2021/05/03 04:53:51;;;;;;;0.20;0.20;;;9.90;62.20;;;;;;5030301;28;20076;-71
2021/05/03 04:56:18;;;;;;;0.20;0.20;;;9.90;62.20;;;;;;5029879;28;20493;-71
2021/05/03 04:58:44;;;;;;;0.40;0.40;;;9.90;62.10;;;;;;5030093;28;20168;-71
2021/05/03 05:01:10;;;;;;;0.30;0.30;;;9.90;62.00;;;;;;5022823;28;20065;-71
2021/05/03 05:03:37;;;;;;;0.40;0.40;;;9.90;61.90;;;;;;5026038;28;20057;-71
2021/05/03 05:06:03;;;;;;;0.47;0.47;;;9.80;61.80;;;;;;5030868;28;20041;-71
2021/05/03 05:08:30;;;;;;;0.57;0.30;;;9.80;62.00;;;;;;5026728;28;20180;-71
2021/05/03 05:10:56;;;;;;;0.50;0.50;;;9.70;62.10;;;;;;5021872;28;20128;-71
2021/05/03 05:13:23;;;;;;;0.60;0.60;;;9.60;62.20;;;;;;5022676;28;20509;-71
2021/05/03 05:15:49;;;;;;;0.60;0.60;;;9.50;62.40;;;;;;5017728;28;20053;-71
2021/05/03 05:18:16;;;;;;;0.50;0.50;;;9.50;62.60;;;;;;5022767;28;20053;-71
2021/05/03 05:20:42;;;;;;;0.63;0.63;;;9.50;62.30;;;;;;5016241;28;20057;-71
2021/05/03 05:23:09;;;;;;;0.55;0.55;;;9.40;62.60;;;;;;5022210;28;20128;-71
2021/05/03 05:25:35;;;;;;;0.40;0.40;;;9.50;62.80;;;;;;5021613;28;20048;-71
2021/05/03 05:28:02;;;;;;;0.80;0.60;;;9.40;62.70;;;;;;5026662;28;20053;-71
2021/05/03 05:30:28;;;;;;;0.40;0.40;;;9.50;62.80;;;;;;5017752;28;20045;-71
2021/05/03 05:32:55;;;;;;;0.50;0.50;;;9.50;62.60;;;;;;5025485;28;20196;-73
2021/05/03 05:35:21;;;;;;;0.50;0.50;;;9.50;62.70;;;;;;5026596;28;20132;-68
2021/05/03 05:37:47;;;;;;;0.70;0.70;;;9.40;62.70;;;;;;5026687;28;20061;-70
2021/05/03 05:40:14;;;;;;;0.50;0.50;;;9.50;62.70;;;;;;5014017;28;20221;-70
2021/05/03 05:42:40;;;;;;;1.25;0.50;;;9.40;62.70;;;;;;5011773;28;20551;-70
2021/05/03 05:45:07;;;;;;;0.70;0.70;;;9.50;63.70;;;;;;5013222;28;20128;-69
2021/05/03 05:47:33;;;;;;;0.60;0.60;;;9.50;62.70;;;;;;5011444;28;20077;-69
2021/05/03 05:49:59;;;;;;;0.68;0.68;;;9.50;62.70;;;;;;5013269;28;20087;-70
2021/05/03 05:52:26;;;;;;;0.63;0.63;;;9.60;62.70;;;;;;5014044;28;20575;-70
2021/05/03 05:54:53;;;;;;;0.75;0.60;;;9.60;63.50;;;;;;5028728;28;20167;-70
2021/05/03 05:57:20;;;;;;;0.93;0.60;;;9.70;62.70;;;;;;5030842;28;20204;-68
2021/05/03 05:59:46;;;;;;;0.55;0.50;;;9.60;62.70;;;;;;5030920;28;20069;-69
2021/05/03 06:02:12;;;;;;;0.80;0.80;;;9.60;62.70;;;;;;5030505;28;20553;-69
2021/05/03 06:04:39;;;;;;;0.68;0.68;;;9.70;63.00;;;;;;5029392;28;20064;-69
2021/05/03 06:07:05;;;;;;;0.52;0.52;;;9.70;63.20;;;;;;5027737;28;20046;-69
2021/05/03 06:09:31;;;;;;;0.60;0.60;;;9.70;63.20;;;;;;5020667;28;20592;-68
2021/05/03 06:11:58;;;;;;;0.55;0.55;;;9.80;63.10;;;;;;5022948;28;20121;-69
2021/05/03 06:14:24;;;;;;;0.70;0.70;;;9.80;63.20;;;;;;5022505;28;20702;-70
2021/05/03 06:16:51;;;;;;;0.60;0.60;;;9.80;63.20;;;;;;5029864;28;20041;-70
2021/05/03 06:19:17;;;;;;;0.50;0.50;;;9.90;63.30;;;;;;5030735;28;20038;-70
2021/05/03 06:21:43;;;;;;;0.77;0.77;;;9.90;63.40;;;;;;5027838;28;20379;-69
2021/05/03 06:24:09;;;;;;;0.60;0.60;;;10.00;63.60;;;;;;5024991;28;20549;-69
2021/05/03 06:26:36;;;;;;;1.42;0.80;;;10.10;63.50;;;;;;5029415;28;20153;-69
2021/05/03 06:29:02;;;;;;;0.70;0.70;;;10.20;63.10;;;;;;5033114;28;20049;-70
2021/05/03 06:31:31;;;;;;;1.02;0.60;;;10.30;63.00;;;;;;5033255;28;20053;-69
2021/05/03 06:33:57;;;;;;;0.80;0.80;;;10.30;62.80;;;;;;5031208;28;20045;-69
2021/05/03 06:36:23;;;;;;;0.60;0.60;;;10.40;62.80;;;;;;5020636;28;20136;-69
2021/05/03 06:38:50;;;;;;;1.17;0.63;;;10.40;63.00;;;;;;5030252;28;20053;-68
2021/05/03 06:41:16;;;;;;;0.90;0.90;;;10.50;63.00;;;;;;5026525;28;20132;-68
2021/05/03 06:43:42;;;;;;;0.80;0.80;;;10.50;63.00;;;;;;5024397;28;20153;-68
2021/05/03 06:46:09;;;;;;;1.00;1.00;;;10.60;62.90;;;;;;5032245;28;20045;-69
2021/05/03 06:48:35;;;;;;;0.80;0.80;;;10.70;62.90;;;;;;5033414;28;20041;-68
2021/05/03 06:51:02;;;;;;;1.60;0.70;;;10.70;62.90;;;;;;5031289;28;20120;-65
2021/05/03 06:53:28;;;;;;;1.05;1.00;;;10.80;62.80;;;;;;5033862;28;20045;-65
2021/05/03 06:55:54;;;;;;;0.90;0.90;;;10.80;63.00;;;;;;5032097;28;20053;-65
2021/05/03 06:58:20;;;;;;;0.93;0.82;;;10.80;63.00;;;;;;5027860;28;20184;-65
2021/05/03 07:00:47;;;;;;;0.73;0.73;;;10.80;63.00;;;;;;5031472;28;20102;-65
2021/05/03 07:03:13;;;;;;;0.70;0.70;;;10.90;63.00;;;;;;5032105;28;20578;-65
2021/05/03 07:05:40;;;;;;;0.68;0.68;;;11.00;62.70;;;;;;5031207;28;20053;-65
2021/05/03 07:08:08;;;;;;;0.80;0.80;;;11.10;62.60;;;;;;5037460;28;20468;-65
2021/05/03 07:10:38;;;;;;;0.80;0.80;;;11.30;62.30;;;;;;5031481;28;20052;-65
2021/05/03 07:13:05;;;;;;;1.42;0.90;;;11.50;61.70;;;;;;5032648;28;20503;-65
2021/05/03 07:15:31;;;;;;;0.80;0.80;;;11.60;61.40;;;;;;5026874;28;20102;-64
2021/05/03 07:17:57;;;;;;;1.13;0.90;;;11.70;61.10;;;;;;5032249;28;20124;-65
2021/05/03 07:20:24;;;;;;;0.80;0.80;;;11.90;60.50;;;;;;5028766;28;20053;-65
2021/05/03 07:22:50;;;;;;;0.80;0.80;;;12.00;60.10;;;;;;5024365;28;20046;-65
2021/05/03 07:25:17;;;;;;;0.70;0.70;;;12.30;59.70;;;;;;5026732;28;20048;-65
2021/05/03 07:27:43;;;;;;;0.70;0.70;;;12.70;59.20;;;;;;5028016;28;20050;-65
2021/05/03 07:30:12;;;;;;;0.60;0.60;;;13.10;58.70;;;;;;5023453;28;20045;-65
2021/05/03 07:32:39;;;;;;;0.65;0.60;;;13.60;58.20;;;;;;5028321;28;20066;-65
2021/05/03 07:35:08;;;;;;;0.57;0.57;;;14.00;55.70;;;;;;5021162;28;20116;-65
2021/05/03 07:37:34;;;;;;;0.50;0.50;;;14.50;55.00;;;;;;5028571;28;20247;-65
2021/05/03 07:40:03;;;;;;;0.38;0.38;;;14.90;54.60;;;;;;5019725;28;20065;-65
2021/05/03 07:42:29;;;;;;;0.40;0.40;;;15.40;53.90;;;;;;5031888;28;20091;-65
2021/05/03 07:44:56;;;;;;;0.30;0.30;;;15.80;53.20;;;;;;5030254;28;20172;-65
2021/05/03 07:47:24;;;;;;;0.50;0.50;;;16.20;52.40;;;;;;5029337;28;20545;-65
2021/05/03 07:49:50;;;;;;;0.50;0.50;;;16.60;50.90;;;;;;5026000;28;20434;-66
2021/05/03 07:52:17;;;;;;;0.50;0.50;;;16.90;47.10;;;;;;5013913;28;20156;-66
2021/05/03 07:54:43;;;;;;;0.40;0.40;;;17.20;46.60;;;;;;5030905;28;20045;-67
2021/05/03 07:57:09;;;;;;;0.30;0.30;;;17.40;46.90;;;;;;5027797;28;20053;-66
2021/05/03 07:59:35;;;;;;;0.30;0.30;;;17.60;47.20;;;;;;5029864;28;20148;-66
2021/05/03 08:02:02;;;;;;;0.38;0.30;;;18.00;46.70;;;;;;5028699;28;20049;-66
2021/05/03 08:04:28;;;;;;;0.38;0.38;;;18.20;45.80;;;;;;5028066;28;20432;-66
2021/05/03 08:06:59;;;;;;;0.30;0.30;;;18.50;45.40;;;;;;5034349;28;20049;-66
2021/05/03 08:09:27;;;;;;;0.55;0.55;;;18.80;44.90;;;;;;5027574;28;20049;-66
2021/05/03 08:11:54;;;;;;;0.40;0.40;;;19.00;43.50;;;;;;5027886;28;20516;-66
2021/05/03 08:14:22;;;;;;;0.30;0.30;;;19.10;41.20;;;;;;5017795;28;20189;-66
2021/05/03 08:16:53;;;;;;;0.30;0.30;;;19.20;40.30;;;;;;5019615;28;20046;-66
2021/05/03 08:19:22;;;;;;;0.30;0.30;;;19.30;40.30;;;;;;5016767;28;20053;-66
2021/05/03 08:21:49;;;;;;;0.30;0.30;;;19.50;39.60;;;;;;5025073;28;20509;-67
2021/05/03 08:24:15;;;;;;;0.20;0.20;;;19.70;39.00;;;;;;5018822;28;20057;-66
2021/05/03 08:26:42;;;;;;;0.30;0.30;;;19.80;39.00;;;;;;5023362;28;20180;-66
2021/05/03 08:29:08;;;;;;;0.40;0.40;;;20.00;38.90;;;;;;5031142;28;20078;-66
2021/05/03 08:31:34;;;;;;;2.00;0.45;;;20.10;37.50;;;;;;5026673;28;20042;-66
2021/05/03 08:34:01;;;;;;;0.20;0.20;;;20.10;37.50;;;;;;5017531;28;20054;-66
2021/05/03 08:36:27;;;;;;;0.30;0.30;;;20.30;37.00;;;;;;5024537;28;20048;-66
2021/05/03 08:38:54;;;;;;;0.38;0.38;;;20.40;37.60;;;;;;5020074;28;20110;-66
2021/05/03 08:41:20;;;;;;;0.30;0.30;;;20.50;36.00;;;;;;5022752;28;20057;-66
2021/05/03 08:43:48;;;;;;;0.40;0.28;;;20.50;35.50;;;;;;5026454;28;20050;-66
2021/05/03 08:46:26;;;;;;;0.20;0.20;;;20.60;35.30;;;;;;5029340;28;20049;-66
2021/05/03 08:56:36;;;;;;;0.60;0.30;;;20.80;31.90;;;;;;5028835;28;20508;-66
2021/05/03 08:59:03;;;;;;;0.30;0.20;;;20.80;32.10;;;;;;5026125;28;20053;-66
2021/05/03 09:01:30;;;;;;;0.32;0.28;;;20.90;32.20;;;;;;5019502;28;20049;-67
2021/05/03 09:03:58;;;;;;;0.20;0.20;;;21.00;32.50;;;;;;5019968;28;20133;-67
2021/05/03 09:06:24;;;;;;;0.20;0.20;;;21.10;32.00;;;;;;5028335;28;20777;-66
2021/05/03 09:09:06;;;;;;;0.40;0.40;;;21.10;31.60;;;;;;5031416;28;20125;-67
2021/05/03 09:11:35;;;;;;;0.30;0.30;;;21.20;31.10;;;;;;5018134;28;20052;-67
2021/05/03 09:14:11;;;;;;;0.30;0.30;;;21.20;30.70;;;;;;5029164;28;20534;-67
2021/05/03 09:16:45;;;;;;;0.25;0.25;;;21.10;29.00;;;;;;5016841;28;20045;-67
2021/05/03 09:19:13;;;;;;;0.30;0.30;;;20.80;30.00;;;;;;5016703;28;20054;-66
2021/05/03 09:21:41;;;;;;;0.28;0.28;;;20.80;30.10;;;;;;5016370;28;20046;-66
2021/05/03 09:24:18;;;;;;;0.20;0.20;;;20.80;30.10;;;;;;5016663;28;20054;-67
2021/05/03 09:26:49;;;;;;;0.10;0.10;;;20.70;30.50;;;;;;5017059;28;20195;-67
2021/05/03 09:29:29;;;;;;;0.20;0.20;;;20.80;30.70;;;;;;5031077;28;20128;-67
2021/05/03 09:32:10;;;;;;;0.20;0.20;;;20.90;30.80;;;;;;5030842;28;20091;-67
2021/05/03 09:34:44;;;;;;;0.30;0.30;;;20.90;30.70;;;;;;5030989;28;20552;-66
2021/05/03 09:37:29;;;;;;;0.10;0.10;;;20.80;29.80;;;;;;5030457;28;20057;-65
2021/05/03 09:40:12;;;;;;;0.22;0.20;;;20.60;30.10;;;;;;5030733;28;20142;-65
2021/05/03 09:42:45;;;;;;;0.17;0.17;;;20.50;30.70;;;;;;5017000;28;20107;-65
2021/05/03 09:45:30;;;;;;;0.32;0.20;;;20.60;30.60;;;;;;5018826;28;20111;-65
2021/05/03 09:48:01;;;;;;;0.20;0.20;;;20.30;30.20;;;;;;5017310;28;20067;-65
2021/05/03 09:50:31;;;;;;;;;;;20.00;30.80;;;;;;5022688;28;20472;-65
2021/05/03 09:53:12;;;;;;;0.20;0.20;;;19.70;30.90;;;;;;5021276;28;20384;-65
2021/05/03 09:55:41;;;;;;;0.15;0.15;;;19.20;31.60;;;;;;5024205;28;20526;-66
2021/05/03 09:58:07;;;;;;;0.57;0.30;;;19.00;32.00;;;;;;5024749;28;20053;-66
2021/05/03 10:00:39;;;;;;;0.20;0.20;;;18.90;32.20;;;;;;5024549;28;20053;-65
2021/05/03 10:03:29;;;;;;;0.20;0.20;;;18.80;32.40;;;;;;5015721;28;20526;-65
2021/05/03 10:05:57;;;;;;;0.20;0.20;;;18.90;32.40;;;;;;5022893;28;20132;-65
2021/05/03 10:08:24;;;;;;;0.20;0.20;;;18.90;32.50;;;;;;5029935;28;20050;-65
2021/05/03 10:10:53;;;;;;;0.10;0.10;;;19.10;32.10;;;;;;5014649;28;20104;-66
2021/05/03 10:13:20;;;;;;;0.17;0.10;;;19.20;31.40;;;;;;5015788;28;20096;-65
2021/05/03 10:15:47;;;;;;;0.22;0.20;;;19.20;31.50;;;;;;5011968;28;20133;-66
2021/05/03 10:18:18;;;;;;;0.30;0.20;;;18.80;30.80;;;;;;5012360;28;20441;-65
2021/05/03 10:20:45;;;;;;;;;;;18.20;31.40;;;;;;5012913;28;20061;-65
2021/05/03 10:23:12;;;;;;;0.10;0.10;;;17.90;31.80;;;;;;5013713;28;19926;-65
2021/05/03 10:25:40;;;;;;;0.10;0.10;;;17.60;32.40;;;;;;5014243;28;20050;-65
2021/05/03 10:28:08;;;;;;;0.10;0.10;;;17.70;32.70;;;;;;5027930;28;20559;-65
2021/05/03 10:30:43;;;;;;;0.10;0.10;;;17.70;32.50;;;;;;5027981;28;20095;-65
2021/05/03 10:33:12;;;;;;;0.10;0.10;;;17.60;32.60;;;;;;5023221;28;20050;-64
2021/05/03 10:35:49;;;;;;;0.20;0.20;;;17.60;32.90;;;;;;5022613;28;20561;-68
2021/05/03 10:38:28;;;;;;;0.10;0.10;;;17.60;33.00;;;;;;5017015;28;20045;-68
2021/05/03 10:40:57;;;;;;;0.60;0.20;;;17.80;32.70;;;;;;5018282;28;20693;-68
2021/05/03 10:43:27;;;;;;;0.10;0.10;;;17.80;32.10;;;;;;5029261;28;20085;-69
2021/05/03 10:47:03;;;;;;;0.13;0.13;;;17.80;32.70;;;;;;5028354;28;20132;-67
2021/05/03 10:49:22;;;;;;;0.20;0.20;;;17.70;33.10;;;;;;5018473;28;20038;-67
2021/05/03 10:56:57;;;;;;;0.85;0.22;;;17.50;33.50;;;;;;5019393;28;20108;-68
2021/05/03 10:59:23;;;;;;;0.20;0.20;;;17.50;33.60;;;;;;5025663;28;20171;-68
2021/05/03 11:01:53;;;;;;;0.20;0.20;;;17.60;34.00;;;;;;5019862;28;20056;-68
2021/05/03 11:04:22;;;;;;;0.20;0.20;;;17.60;33.50;;;;;;5023267;28;20061;-67
2021/05/03 11:06:49;;;;;;;0.20;0.20;;;17.30;34.90;;;;;;5027346;28;20052;-68
2021/05/03 11:09:31;;;;;;;0.15;0.15;;;17.10;34.10;;;;;;5023864;28;20461;-67
2021/05/03 11:11:59;;;;;;;1.17;0.25;;;17.00;34.20;;;;;;5029570;28;20046;-67
2021/05/03 11:14:29;;;;;;;0.10;0.10;;;17.00;35.00;;;;;;5022768;28;20050;-67
2021/05/03 11:17:02;;;;;;;0.82;0.40;;;17.20;34.70;;;;;;5023130;28;20053;-67
2021/05/03 11:19:44;;;;;;;0.73;0.20;;;17.30;34.30;;;;;;5031763;28;20049;-67
2021/05/03 11:22:16;;;;;;;0.55;0.22;;;17.50;34.00;;;;;;5023040;28;20071;-68
2021/05/03 11:24:51;;;;;;;0.43;0.28;;;17.30;33.40;;;;;;5035013;28;20171;-67
2021/05/03 11:27:23;;;;;;;0.65;0.30;;;17.10;34.10;;;;;;5027405;28;20128;-67
2021/05/03 11:30:18;;;;;;;0.35;0.17;;;17.20;34.80;;;;;;5033537;28;20132;-67
2021/05/03 11:32:40;;;;;;;0.82;0.40;;;17.30;34.20;;;;;;5032946;28;20063;-67
2021/05/03 11:38:33;;;;;;;0.20;0.20;;;17.10;33.00;;;;;;5032258;28;20057;-67
2021/05/03 11:46:08;;;;;;;0.20;0.20;;;16.50;35.20;;;;;;5022617;28;20068;-67
2021/05/03 11:48:35;;;;;;;0.30;0.30;;;16.50;35.60;;;;;;5020036;28;20184;-67
2021/05/03 11:51:07;;;;;;;0.30;0.20;;;16.60;35.30;;;;;;5027361;28;20048;-67
2021/05/03 11:53:39;;;;;;;0.52;0.40;;;16.60;34.80;;;;;;5025256;28;20769;-67
2021/05/03 11:56:26;;;;;;;0.50;0.20;;;16.80;33.70;;;;;;5021452;28;20416;-67
2021/05/03 11:58:54;;;;;;;0.20;0.20;;;16.80;34.20;;;;;;5020215;28;20456;-70
2021/05/03 12:01:23;;;;;;;0.20;0.20;;;16.60;33.50;;;;;;5026284;28;20045;-67
2021/05/03 12:03:52;;;;;;;0.93;0.30;;;16.40;32.80;;;;;;5027442;28;20130;-67
2021/05/03 12:06:42;;;;;;;0.20;0.20;;;16.40;33.80;;;;;;5021530;28;20090;-67
2021/05/03 12:09:10;;;;;;;0.88;0.20;;;16.60;33.90;;;;;;5021477;28;20099;-67
2021/05/03 12:11:38;;;;;;;0.22;0.13;;;16.60;34.80;;;;;;5024228;28;20125;-67
2021/05/03 12:14:05;;;;;;;0.55;0.30;;;16.70;34.40;;;;;;5012690;28;20081;-67
2021/05/03 12:16:37;;;;;;;0.22;0.22;;;16.80;33.30;;;;;;5015991;28;20142;-67
2021/05/03 12:19:18;;;;;;;0.13;0.13;;;16.60;33.00;;;;;;5011879;28;20054;-67
2021/05/03 12:21:45;;;;;;;0.22;0.20;;;16.60;33.90;;;;;;5013383;28;20882;-67
2021/05/03 12:24:13;;;;;;;0.20;0.20;;;16.60;34.20;;;;;;5022869;28;20200;-67
2021/05/03 12:26:59;;;;;;;0.20;0.20;;;16.60;34.50;;;;;;5015323;28;20057;-67
2021/05/03 12:29:28;;;;;;;0.40;0.30;;;16.60;35.00;;;;;;5018370;28;20535;-67
2021/05/03 12:31:55;;;;;;;0.75;0.20;;;16.60;35.10;;;;;;5020723;28;20417;-67
2021/05/03 12:34:23;;;;;;;0.10;0.10;;;16.60;34.50;;;;;;5023832;28;20111;-67
2021/05/03 12:37:11;;;;;;;0.20;0.20;;;16.60;33.90;;;;;;5018980;28;20418;-67
2021/05/03 12:39:53;;;;;;;0.10;0.10;;;16.50;33.50;;;;;;5020097;28;20200;-67
2021/05/03 12:42:20;;;;;;;1.55;0.22;;;16.50;33.80;;;;;;5022399;28;20049;-67
2021/05/03 12:44:54;;;;;;;0.10;0.10;;;16.50;34.30;;;;;;5019229;28;20539;-67
2021/05/03 12:50:00;;;;;;;0.20;0.10;;;16.60;34.60;;;;;;5013099;28;20103;-67
2021/05/03 12:52:43;;;;;;;0.03;0.03;;;16.60;33.80;;;;;;5013173;28;20046;-67
2021/05/03 12:55:19;;;;;;;0.38;0.10;;;16.60;33.70;;;;;;5013162;28;20050;-67
2021/05/03 12:58:14;;;;;;;0.10;0.10;;;16.70;33.90;;;;;;5026505;28;20136;-67
2021/05/03 13:00:50;;;;;;;0.57;0.30;;;16.70;34.10;;;;;;5014407;28;20585;-67
2021/05/03 13:03:29;;;;;;;0.10;0.10;;;16.80;33.50;;;;;;5020087;28;20056;-68
2021/05/03 13:09:02;;;;;;;0.20;0.20;;;16.90;33.00;;;;;;5031017;28;20041;-67
2021/05/03 13:29:09;;;;;;;0.30;0.10;;;16.50;33.20;;;;;;5023231;28;20077;-66
2021/05/03 13:31:38;;;;;;;0.10;0.10;;;16.50;32.80;;;;;;5027075;28;20049;-66
2021/05/03 13:34:07;;;;;;;0.35;0.20;;;16.60;32.60;;;;;;5014679;28;20050;-67
2021/05/03 13:36:35;;;;;;;0.10;0.03;;;16.70;32.90;;;;;;5023117;28;20138;-67
2021/05/03 13:39:05;;;;;;;0.17;0.10;;;16.70;32.80;;;;;;5028286;28;20049;-67
2021/05/03 13:41:40;;;;;;;0.47;0.17;;;16.80;32.90;;;;;;5028185;28;20060;-66
2021/05/03 13:44:08;;;;;;;0.20;0.20;;;16.90;32.80;;;;;;5027977;28;20128;-67
2021/05/03 13:46:35;;;;;;;0.20;0.20;;;16.90;31.80;;;;;;5029182;28;20632;-65
2021/05/03 13:49:03;;;;;;;0.20;0.20;;;16.90;31.30;;;;;;5027073;28;20046;-67
2021/05/03 13:51:30;;;;;;;0.10;0.10;;;16.80;31.50;;;;;;5029871;28;20037;-67
2021/05/03 13:53:57;;;;;;;0.20;0.15;;;16.90;32.00;;;;;;5024031;28;20176;-67
2021/05/03 13:56:24;;;;;;;0.52;0.15;;;16.80;32.00;;;;;;5028607;28;20486;-68
2021/05/03 13:58:50;;;;;;;0.20;0.20;;;16.80;32.10;;;;;;5017757;28;20141;-67